Rock Creek, OH (44084)

6:46 AM EST on February 14, 2016 (GMT -0500)
Trumbull Twp | | Change Station
CLOSE
Current Station
Personal Weather Station
Location: Rock Creek, OH
Elevation: 1020 ft
Nearby Weather Stations

Elev 1020 ft 41.66 °N, 80.96 °W | Updated 12 minutes ago

Overcast
Overcast
8.4 °F
Feels Like 2 °F
N
3.2
Wind Variable Wind from SW

Today
High -- | Low -- °F
--% Chance of Precip.
Yesterday
High -- | Low -- °F
Precip. -- in
Pressure 30.51 in
Visibility 10.0 miles
Clouds Few 2800 ft
Overcast 3800 ft
Windchill 2 °F
Dew Point 1 °F
Humidity 72%
Rainfall 0.00 in
Snow Depth Not available.
7:20 AM 5:55 PM
Waxing Crescent, 41% visible
METAR KHZY 141053Z AUTO 35004KT 10SM FEW028 OVC038 M12/M17 A3044 RMK AO2 SNE40 SLP329 P0000 T11171167 TSNO
Pressure 30.51 in
Visibility 10.0 miles
Clouds Few 2800 ft
Overcast 3800 ft
Windchill 2 °F
Dew Point 1 °F
Humidity 72%
Rainfall 0.00 in
Snow Depth Not available.
7:20 AM 5:55 PM
Waxing Crescent, 41% visible
METAR KHZY 141053Z AUTO 35004KT 10SM FEW028 OVC038 M12/M17 A3044 RMK AO2 SNE40 SLP329 P0000 T11171167 TSNO

10-Day Weather Forecast

Almanac

Astronomy

Feb. 14, 2016 Rise Set
Actual Time
Civil Twilight
Nautical Twilight
Astronomical Twilight
Moon
Length of Visible Light
Length of Day
Tomorrow will be .
, % of the Moon is Illuminated

Today's Extremes

State Highs State Lows

Community

WunderPhotos

Upload Photos

1,892,766 photos uploaded!

WunderBlog® & News

Nearby

Air Quality

  Air Quality AQ Index Pollutant
Not available.

Snow Depth

Station Depth Elevation

Earthquake Activity

City Distance Mag. Time & Date
Minimum magnitude displayed is 2.5.

Coastal Water Temperatures

Place Temperature

Stations

Nearby Weather Stations

Station Location Temp. Windchill Dew Point Humidity Wind Precip. Elev Updated Type
                   

Watches & Warnings

There are currently no watches in effect.